createdAt,value
2018-07-14T00:01:56.555Z,100.00
2018-07-14T00:04:25.062Z,100.00
2018-07-14T00:06:54.102Z,100.00
2018-07-14T00:09:22.427Z,100.00
2018-07-14T00:11:50.594Z,100.00
2018-07-14T00:14:18.777Z,100.00
2018-07-14T00:16:46.966Z,100.00
2018-07-14T00:19:15.221Z,100.00
2018-07-14T00:21:43.493Z,100.00
2018-07-14T00:24:11.679Z,100.00
2018-07-14T00:26:39.914Z,100.00
2018-07-14T00:29:08.132Z,100.00
2018-07-14T00:31:36.425Z,100.00
2018-07-14T00:34:04.609Z,100.00
2018-07-14T00:36:32.784Z,100.00
2018-07-14T00:39:01.033Z,100.00
2018-07-14T00:41:29.204Z,100.00
2018-07-14T00:43:57.461Z,100.00
2018-07-14T00:46:25.644Z,100.00
2018-07-14T00:48:53.828Z,100.00
2018-07-14T00:51:22.091Z,100.00
2018-07-14T00:53:50.277Z,100.00
2018-07-14T00:56:18.537Z,100.00
2018-07-14T00:58:46.697Z,100.00
2018-07-14T01:01:14.869Z,100.00
2018-07-14T01:03:43.070Z,100.00
2018-07-14T01:06:11.339Z,100.00
2018-07-14T01:08:39.540Z,100.00
2018-07-14T01:11:07.867Z,100.00
2018-07-14T01:13:36.066Z,100.00
2018-07-14T01:16:04.292Z,100.00
2018-07-14T01:18:32.486Z,100.00
2018-07-14T01:21:00.693Z,100.00
2018-07-14T01:23:28.870Z,100.00
2018-07-14T01:25:57.138Z,100.00
2018-07-14T01:28:25.317Z,100.00
2018-07-14T01:30:53.506Z,100.00
2018-07-14T01:33:21.673Z,100.00
2018-07-14T01:35:49.844Z,100.00
2018-07-14T01:38:18.062Z,100.00
2018-07-14T01:40:46.280Z,100.00
2018-07-14T01:43:14.788Z,100.00
2018-07-14T01:45:43.086Z,100.00
2018-07-14T01:48:11.317Z,100.00
2018-07-14T01:50:39.494Z,100.00
2018-07-14T01:53:07.701Z,100.00
2018-07-14T01:55:35.845Z,100.00
2018-07-14T01:58:04.078Z,100.00
2018-07-14T02:00:32.537Z,100.00
2018-07-14T02:03:00.729Z,100.00
2018-07-14T02:05:28.948Z,100.00
2018-07-14T02:07:57.124Z,100.00
2018-07-14T02:10:25.403Z,100.00
2018-07-14T02:12:54.016Z,100.00
2018-07-14T02:15:22.282Z,100.00
2018-07-14T02:17:50.535Z,100.00
2018-07-14T02:20:18.722Z,100.00
2018-07-14T02:22:46.994Z,100.00
2018-07-14T02:25:15.156Z,100.00
2018-07-14T02:27:43.366Z,100.00
2018-07-14T02:30:12.218Z,100.00
2018-07-14T02:32:40.389Z,100.00
2018-07-14T02:35:08.562Z,100.00
2018-07-14T02:37:36.762Z,100.00
2018-07-14T02:40:05.215Z,100.00
2018-07-14T02:42:33.393Z,100.00
2018-07-14T02:45:01.894Z,100.00
2018-07-14T02:47:30.153Z,100.00
2018-07-14T02:49:58.433Z,100.00
2018-07-14T02:52:26.618Z,100.00
2018-07-14T02:54:54.798Z,100.00
2018-07-14T02:57:23.657Z,100.00
2018-07-14T02:59:51.846Z,100.00
2018-07-14T03:02:20.050Z,100.00
2018-07-14T03:04:48.213Z,100.00
2018-07-14T03:07:18.210Z,100.00
2018-07-14T03:09:46.385Z,100.00
2018-07-14T03:12:14.553Z,100.00
2018-07-14T03:14:42.763Z,100.00
2018-07-14T03:17:10.925Z,100.00
2018-07-14T03:19:39.361Z,100.00
2018-07-14T03:22:07.599Z,100.00
2018-07-14T03:24:35.839Z,100.00
2018-07-14T03:27:04.009Z,100.00
2018-07-14T03:29:32.198Z,100.00
2018-07-14T03:32:00.460Z,100.00
2018-07-14T03:34:28.734Z,100.00
2018-07-14T03:36:56.946Z,100.00
2018-07-14T03:39:25.186Z,100.00
2018-07-14T03:41:53.405Z,100.00
2018-07-14T03:44:21.550Z,100.00
2018-07-14T03:46:49.806Z,100.00
2018-07-14T03:49:18.030Z,100.00
2018-07-14T03:51:46.214Z,100.00
2018-07-14T03:54:14.385Z,100.00
2018-07-14T03:56:42.570Z,100.00
2018-07-14T03:59:10.790Z,100.00
2018-07-14T04:01:39.049Z,100.00
2018-07-14T04:04:07.217Z,100.00
2018-07-14T04:06:35.541Z,100.00
2018-07-14T04:09:04.550Z,100.00
2018-07-14T04:11:32.741Z,100.00
2018-07-14T04:14:00.921Z,100.00
2018-07-14T04:16:29.097Z,100.00
2018-07-14T04:18:57.297Z,100.00
2018-07-14T04:21:25.589Z,100.00
2018-07-14T04:23:53.845Z,100.00
2018-07-14T04:26:22.021Z,100.00
2018-07-14T04:28:50.518Z,100.00
2018-07-14T04:31:18.676Z,100.00
2018-07-14T04:33:46.900Z,100.00
2018-07-14T04:36:15.142Z,100.00
2018-07-14T04:38:43.312Z,100.00
2018-07-14T04:41:11.574Z,100.00
2018-07-14T04:43:39.754Z,100.00
2018-07-14T04:46:08.162Z,100.00
2018-07-14T04:48:36.350Z,100.00
2018-07-14T04:51:04.715Z,100.00
2018-07-14T04:53:32.948Z,100.00
2018-07-14T04:56:01.118Z,100.00
2018-07-14T04:58:29.318Z,100.00
2018-07-14T05:00:57.490Z,100.00
2018-07-14T05:03:25.774Z,100.00
2018-07-14T05:05:54.079Z,100.00
2018-07-14T05:08:22.322Z,100.00
2018-07-14T05:10:50.527Z,100.00
2018-07-14T05:13:18.716Z,100.00
2018-07-14T05:15:46.882Z,100.00
2018-07-14T05:18:15.297Z,100.00
2018-07-14T05:20:43.465Z,100.00
2018-07-14T05:23:11.649Z,100.00
2018-07-14T05:25:39.817Z,100.00
2018-07-14T05:28:07.997Z,100.00
2018-07-14T05:30:36.208Z,100.00
2018-07-14T05:33:04.610Z,100.00
2018-07-14T05:35:33.003Z,100.00
2018-07-14T05:38:01.214Z,100.00
2018-07-14T05:40:29.550Z,100.00
2018-07-14T05:42:57.754Z,100.00
2018-07-14T05:45:27.022Z,100.00
2018-07-14T05:47:55.262Z,100.00
2018-07-14T05:50:23.466Z,100.00
2018-07-14T05:52:51.957Z,100.00
2018-07-14T05:55:20.302Z,100.00
2018-07-14T05:57:48.509Z,100.00
2018-07-14T06:00:16.961Z,100.00
2018-07-14T06:02:45.213Z,100.00
2018-07-14T06:05:13.671Z,100.00
2018-07-14T06:07:41.861Z,100.00
2018-07-14T06:10:10.355Z,100.00
2018-07-14T06:12:38.731Z,100.00
2018-07-14T06:15:07.052Z,100.00
2018-07-14T06:17:35.238Z,99.17
2018-07-14T06:20:03.506Z,96.02
2018-07-14T06:22:31.714Z,92.71
2018-07-14T06:24:59.994Z,91.82
2018-07-14T06:27:28.220Z,87.25
2018-07-14T06:29:56.414Z,85.60
2018-07-14T06:32:24.686Z,89.67
2018-07-14T06:34:52.956Z,87.28
2018-07-14T06:37:21.172Z,86.58
2018-07-14T06:39:49.500Z,84.45
2018-07-14T06:42:17.699Z,80.47
2018-07-14T06:44:46.354Z,76.63
2018-07-14T06:47:14.573Z,75.09
2018-07-14T06:49:42.878Z,74.53
2018-07-14T06:52:11.098Z,71.93
2018-07-14T06:54:39.277Z,69.60
2018-07-14T06:57:07.462Z,69.12
2018-07-14T06:59:35.757Z,70.27
2018-07-14T07:02:04.621Z,72.48
2018-07-14T07:04:32.793Z,70.41
2018-07-14T07:07:02.371Z,71.00
2018-07-14T07:09:30.557Z,69.82
2018-07-14T07:11:58.735Z,68.29
2018-07-14T07:14:26.953Z,68.19
2018-07-14T07:16:55.136Z,66.40
2018-07-14T07:19:23.430Z,65.54
2018-07-14T07:21:51.672Z,65.26
2018-07-14T07:24:19.853Z,63.73
2018-07-14T07:26:48.043Z,63.49
2018-07-14T07:29:16.348Z,66.36
2018-07-14T07:31:44.613Z,64.27
2018-07-14T07:34:12.813Z,61.89
2018-07-14T07:36:41.027Z,57.53
2018-07-14T07:39:09.217Z,54.44
2018-07-14T07:41:37.496Z,53.53
2018-07-14T07:44:05.937Z,53.95
2018-07-14T07:46:34.560Z,52.73
2018-07-14T07:49:02.829Z,50.35
2018-07-14T07:51:31.010Z,49.39
2018-07-14T07:53:59.264Z,48.82
2018-07-14T07:56:27.512Z,46.90
2018-07-14T07:58:55.822Z,43.39
2018-07-14T08:01:24.052Z,45.18
2018-07-14T08:03:52.277Z,45.93
2018-07-14T08:06:20.582Z,43.47
2018-07-14T08:08:48.825Z,42.17
2018-07-14T08:11:17.009Z,42.32
2018-07-14T08:13:45.177Z,43.63
2018-07-14T08:16:13.521Z,41.99
2018-07-14T08:18:41.889Z,41.32
2018-07-14T08:21:10.095Z,42.54
2018-07-14T08:23:38.315Z,45.27
2018-07-14T08:26:06.714Z,43.24
2018-07-14T08:28:34.938Z,42.98
2018-07-14T08:31:03.132Z,42.69
2018-07-14T08:33:32.435Z,42.13
2018-07-14T08:36:01.196Z,43.52
2018-07-14T08:38:29.412Z,42.86
2018-07-14T08:40:57.716Z,42.53
2018-07-14T08:43:25.934Z,42.73
2018-07-14T08:45:54.238Z,42.05
2018-07-14T08:48:22.422Z,40.56
2018-07-14T08:50:50.638Z,40.22
2018-07-14T08:53:18.918Z,40.17
2018-07-14T08:55:47.194Z,39.86
2018-07-14T08:58:15.523Z,39.83
2018-07-14T09:00:43.640Z,39.82
2018-07-14T09:03:11.957Z,39.70
2018-07-14T09:05:40.210Z,39.32
2018-07-14T09:08:08.541Z,40.56
2018-07-14T09:10:36.765Z,41.70
2018-07-14T09:13:04.978Z,41.02
2018-07-14T09:15:33.430Z,36.88
2018-07-14T09:18:02.282Z,35.44
2018-07-14T09:20:30.572Z,34.34
2018-07-14T09:22:58.745Z,35.01
2018-07-14T09:25:27.053Z,34.92
2018-07-14T09:27:55.274Z,34.92
2018-07-14T09:30:23.471Z,34.93
2018-07-14T09:32:53.954Z,35.56
2018-07-14T09:35:22.118Z,35.12
2018-07-14T09:37:50.339Z,34.77
2018-07-14T09:40:18.473Z,34.67
2018-07-14T09:42:48.561Z,32.20
2018-07-14T09:45:20.227Z,36.21
2018-07-14T09:47:48.646Z,34.00
2018-07-14T09:50:16.918Z,34.89
2018-07-14T09:52:45.179Z,36.16
2018-07-14T09:55:13.403Z,35.70
2018-07-14T09:57:41.604Z,35.79
2018-07-14T10:00:14.064Z,35.66
2018-07-14T10:02:42.245Z,34.82
2018-07-14T10:05:10.502Z,34.13
2018-07-14T10:07:38.785Z,33.14
2018-07-14T10:10:07.523Z,32.81
2018-07-14T10:12:35.632Z,33.27
2018-07-14T10:15:03.849Z,34.94
2018-07-14T10:17:32.026Z,33.93
2018-07-14T10:20:00.251Z,33.83
2018-07-14T10:22:28.445Z,33.60
2018-07-14T10:24:56.605Z,33.12
2018-07-14T10:27:24.769Z,32.97
2018-07-14T10:29:53.207Z,33.19
2018-07-14T10:32:21.405Z,32.13
2018-07-14T10:34:49.769Z,34.45
2018-07-14T10:37:18.207Z,31.85
2018-07-14T10:39:46.403Z,30.27
2018-07-14T10:42:14.598Z,30.95
2018-07-14T10:44:42.814Z,30.96
2018-07-14T10:47:10.999Z,30.92
2018-07-14T10:49:39.223Z,30.83
2018-07-14T10:52:07.606Z,30.45
2018-07-14T10:54:35.805Z,28.94
2018-07-14T10:57:04.242Z,28.59
2018-07-14T10:59:32.690Z,27.04
2018-07-14T11:02:01.220Z,27.77
2018-07-14T11:04:29.440Z,27.07
2018-07-14T11:06:57.626Z,27.26
2018-07-14T11:09:25.877Z,27.42
2018-07-14T11:11:54.855Z,25.25
2018-07-14T11:14:31.614Z,26.75
2018-07-14T11:17:01.190Z,26.82
2018-07-14T11:19:29.429Z,26.87
2018-07-14T11:24:46.065Z,22.49
2018-07-14T11:27:17.142Z,19.53
2018-07-14T11:29:45.467Z,17.90
2018-07-14T11:32:13.648Z,17.00
2018-07-14T11:34:53.873Z,18.46
2018-07-14T11:37:22.085Z,20.68
2018-07-14T11:39:50.348Z,23.65
2018-07-14T11:42:18.539Z,26.78
2018-07-14T11:44:46.751Z,26.88
2018-07-14T11:47:14.945Z,27.56
2018-07-14T11:49:43.140Z,29.41
2018-07-14T11:52:11.381Z,30.10
2018-07-14T11:54:39.554Z,33.74
2018-07-14T11:57:07.742Z,41.21
2018-07-14T11:59:35.907Z,48.74
2018-07-14T12:02:04.177Z,49.25
2018-07-14T12:04:32.310Z,49.96
2018-07-14T12:07:00.689Z,55.71
2018-07-14T12:09:28.950Z,65.88
2018-07-14T12:11:57.130Z,61.62
2018-07-14T12:14:25.393Z,66.85
2018-07-14T12:16:53.576Z,68.17
2018-07-14T12:19:21.856Z,74.85
2018-07-14T12:21:50.030Z,76.03
2018-07-14T12:24:18.670Z,70.80
2018-07-14T12:26:46.918Z,75.93
2018-07-14T12:29:15.014Z,79.91
2018-07-14T12:31:43.483Z,76.94
2018-07-14T12:34:11.663Z,71.88
2018-07-14T12:36:39.952Z,72.58
2018-07-14T12:39:08.071Z,70.90
2018-07-14T12:41:36.502Z,69.56
2018-07-14T12:44:04.713Z,73.69
2018-07-14T12:46:32.889Z,73.79
2018-07-14T12:49:01.275Z,65.28
2018-07-14T12:51:29.617Z,74.52
2018-07-14T12:53:57.881Z,69.17
2018-07-14T12:56:26.241Z,74.09
2018-07-14T12:58:54.479Z,68.69
2018-07-14T13:01:22.675Z,78.32
2018-07-14T13:03:50.867Z,79.11
2018-07-14T13:06:19.063Z,80.46
2018-07-14T13:08:47.227Z,83.80
2018-07-14T13:11:15.425Z,77.93
2018-07-14T13:13:43.592Z,73.54
2018-07-14T13:16:11.764Z,74.65
2018-07-14T13:18:39.977Z,71.29
2018-07-14T13:21:08.263Z,66.15
2018-07-14T13:23:36.531Z,62.50
2018-07-14T13:26:04.852Z,59.98
2018-07-14T13:28:33.078Z,48.61
2018-07-14T13:31:01.251Z,45.24
2018-07-14T13:33:29.426Z,44.43
2018-07-14T13:35:57.598Z,41.78
2018-07-14T13:38:25.771Z,41.04
2018-07-14T13:40:53.958Z,36.82
2018-07-14T13:43:22.140Z,38.37
2018-07-14T13:45:50.386Z,32.67
2018-07-14T13:48:18.582Z,28.22
2018-07-14T13:50:46.749Z,28.53
2018-07-14T13:53:15.034Z,20.96
2018-07-14T13:55:43.298Z,17.20
2018-07-14T13:58:11.565Z,17.19
2018-07-14T14:00:39.845Z,17.12
2018-07-14T14:03:08.009Z,18.00
2018-07-14T14:05:36.218Z,21.50
2018-07-14T14:08:04.406Z,18.93
2018-07-14T14:10:32.585Z,19.08
2018-07-14T14:13:00.865Z,18.57
2018-07-14T14:15:29.030Z,14.97
2018-07-14T14:17:57.280Z,13.54
2018-07-14T14:20:25.438Z,14.22
2018-07-14T14:22:53.627Z,14.49
2018-07-14T14:25:21.796Z,15.12
2018-07-14T14:27:49.959Z,17.81
2018-07-14T14:30:18.122Z,16.48
2018-07-14T14:32:46.726Z,17.34
2018-07-14T14:35:14.978Z,18.87
2018-07-14T14:37:43.265Z,18.30
2018-07-14T14:40:11.476Z,14.12
2018-07-14T14:42:39.949Z,12.61
2018-07-14T14:45:08.366Z,18.92
2018-07-14T14:47:36.997Z,19.75
2018-07-14T14:50:05.166Z,17.64
2018-07-14T14:52:33.594Z,20.74
2018-07-14T14:55:01.847Z,21.12
2018-07-14T14:57:30.476Z,25.08
2018-07-14T14:59:58.641Z,25.43
2018-07-14T15:02:26.885Z,27.78
2018-07-14T15:04:55.157Z,29.39
2018-07-14T15:07:23.412Z,29.52
2018-07-14T15:09:51.597Z,29.97
2018-07-14T15:12:19.801Z,29.92
2018-07-14T15:14:48.305Z,30.74
2018-07-14T15:17:16.540Z,30.24
2018-07-14T15:19:44.800Z,31.44
2018-07-14T15:22:13.070Z,31.50
2018-07-14T15:24:41.268Z,32.75
2018-07-14T15:27:09.510Z,32.98
2018-07-14T15:29:37.713Z,32.73
2018-07-14T15:32:06.109Z,33.04
2018-07-14T15:34:34.292Z,34.20
2018-07-14T15:37:02.669Z,34.17
2018-07-14T15:39:30.879Z,35.04
2018-07-14T15:41:59.079Z,35.47
2018-07-14T15:44:27.346Z,36.88
2018-07-14T15:46:55.561Z,36.57
2018-07-14T15:49:23.743Z,37.41
2018-07-14T15:51:52.065Z,36.31
2018-07-14T15:54:20.405Z,37.12
2018-07-14T15:56:48.779Z,36.90
2018-07-14T15:59:17.027Z,37.14
2018-07-14T16:01:45.285Z,36.83
2018-07-14T16:04:13.492Z,35.28
2018-07-14T16:06:42.064Z,35.90
2018-07-14T16:09:10.319Z,35.90
2018-07-14T16:11:38.536Z,35.53
2018-07-14T16:14:06.966Z,34.10
2018-07-14T16:16:35.276Z,34.32
2018-07-14T16:19:03.496Z,34.73
2018-07-14T16:21:31.646Z,35.83
2018-07-14T16:23:59.874Z,35.60
2018-07-14T16:26:28.135Z,35.43
2018-07-14T16:28:56.466Z,34.87
2018-07-14T16:31:24.708Z,35.30
2018-07-14T16:33:52.994Z,36.91
2018-07-14T16:36:21.243Z,35.54
2018-07-14T16:38:49.424Z,34.43
2018-07-14T16:41:17.614Z,36.68
2018-07-14T16:43:45.789Z,37.82
2018-07-14T16:46:14.057Z,38.29
2018-07-14T16:48:42.681Z,36.41
2018-07-14T16:51:10.936Z,38.33
2018-07-14T16:53:39.246Z,37.48
2018-07-14T16:56:07.914Z,38.73
2018-07-14T16:58:36.137Z,39.13
2018-07-14T17:01:04.522Z,40.15
2018-07-14T17:03:32.821Z,40.76
2018-07-14T17:06:01.128Z,40.11
2018-07-14T17:08:29.486Z,42.42
2018-07-14T17:10:57.758Z,43.38
2018-07-14T17:13:26.057Z,43.50
2018-07-14T17:15:54.289Z,45.83
2018-07-14T17:18:22.458Z,43.31
2018-07-14T17:20:50.998Z,43.48
2018-07-14T17:23:19.139Z,45.06
2018-07-14T17:25:47.389Z,42.70
2018-07-14T17:28:15.597Z,42.38
2018-07-14T17:30:43.845Z,42.05
2018-07-14T17:33:12.044Z,42.27
2018-07-14T17:35:40.301Z,42.60
2018-07-14T17:38:08.415Z,44.35
2018-07-14T17:40:36.650Z,44.44
2018-07-14T17:43:04.859Z,43.92
2018-07-14T17:45:33.035Z,44.36
2018-07-14T17:48:01.202Z,45.03
2018-07-14T17:50:29.481Z,46.03
2018-07-14T17:52:57.688Z,45.13
2018-07-14T17:55:25.864Z,45.60
2018-07-14T17:57:54.040Z,45.59
2018-07-14T18:00:22.234Z,45.48
2018-07-14T18:02:50.494Z,46.17
2018-07-14T18:05:18.847Z,47.39
2018-07-14T18:07:47.478Z,43.94
2018-07-14T18:10:15.744Z,44.22
2018-07-14T18:12:43.914Z,44.08
2018-07-14T18:15:12.109Z,45.24
2018-07-14T18:17:40.277Z,45.98
2018-07-14T18:20:08.461Z,45.50
2018-07-14T18:22:36.652Z,45.37
2018-07-14T18:25:04.897Z,46.12
2018-07-14T18:27:33.151Z,46.34
2018-07-14T18:30:01.448Z,46.10
2018-07-14T18:32:29.748Z,45.96
2018-07-14T18:34:57.945Z,45.58
2018-07-14T18:37:27.033Z,46.17
2018-07-14T18:39:55.263Z,46.52
2018-07-14T18:42:23.585Z,47.27
2018-07-14T18:44:51.820Z,48.09
2018-07-14T18:47:20.041Z,48.54
2018-07-14T18:49:48.416Z,49.17
2018-07-14T18:52:16.668Z,49.68
2018-07-14T18:54:44.861Z,50.40
2018-07-14T18:57:13.012Z,51.09
2018-07-14T18:59:41.372Z,52.05
2018-07-14T19:02:09.794Z,52.34
2018-07-14T19:04:38.026Z,53.62
2018-07-14T19:07:06.278Z,54.73
2018-07-14T19:09:34.526Z,54.02
2018-07-14T19:12:02.730Z,53.46
2018-07-14T19:14:31.018Z,53.89
2018-07-14T19:16:59.245Z,55.58
2018-07-14T19:19:27.398Z,56.95
2018-07-14T19:21:55.577Z,59.09
2018-07-14T19:24:23.825Z,60.71
2018-07-14T19:26:52.057Z,61.27
2018-07-14T19:29:20.389Z,60.82
2018-07-14T19:31:48.679Z,62.21
2018-07-14T19:34:16.945Z,64.04
2018-07-14T19:36:45.321Z,64.75
2018-07-14T19:39:13.419Z,64.46
2018-07-14T19:41:41.602Z,65.48
2018-07-14T19:44:10.818Z,65.76
2018-07-14T19:46:43.525Z,66.09
2018-07-14T19:49:11.832Z,67.23
2018-07-14T19:51:40.152Z,68.45
2018-07-14T19:54:08.567Z,70.71
2018-07-14T19:56:36.758Z,70.70
2018-07-14T19:59:05.442Z,71.96
2018-07-14T20:01:33.638Z,71.64
2018-07-14T20:04:01.827Z,79.69
2018-07-14T20:06:30.273Z,79.74
2018-07-14T20:08:58.566Z,81.00
2018-07-14T20:11:26.905Z,82.07
2018-07-14T20:13:55.082Z,85.48
2018-07-14T20:16:23.282Z,84.98
2018-07-14T20:18:51.459Z,85.06
2018-07-14T20:21:19.806Z,86.03
2018-07-14T20:23:48.074Z,93.46
2018-07-14T20:26:16.291Z,89.97
2018-07-14T20:28:44.526Z,87.52
2018-07-14T20:31:12.763Z,87.73
2018-07-14T20:33:41.091Z,89.18
2018-07-14T20:36:09.283Z,93.06
2018-07-14T20:38:37.449Z,95.18
2018-07-14T20:41:05.738Z,95.72
2018-07-14T20:43:34.265Z,94.58
2018-07-14T20:46:02.467Z,96.76
2018-07-14T20:48:30.821Z,100.00
2018-07-14T20:50:59.038Z,100.00
2018-07-14T20:53:27.229Z,100.00
2018-07-14T20:55:55.456Z,100.00
2018-07-14T20:58:23.670Z,100.00
2018-07-14T21:00:51.930Z,100.00
2018-07-14T21:03:20.230Z,100.00
2018-07-14T21:05:48.464Z,100.00
2018-07-14T21:08:16.652Z,100.00
2018-07-14T21:10:44.918Z,100.00
2018-07-14T21:13:13.101Z,100.00
2018-07-14T21:15:41.405Z,100.00
2018-07-14T21:18:09.593Z,100.00
2018-07-14T21:20:37.848Z,100.00
2018-07-14T21:23:05.997Z,100.00
2018-07-14T21:25:34.201Z,100.00
2018-07-14T21:28:02.423Z,100.00
2018-07-14T21:30:30.603Z,100.00
2018-07-14T21:32:58.787Z,100.00
2018-07-14T21:35:27.000Z,100.00
2018-07-14T21:37:55.201Z,100.00
2018-07-14T21:40:23.403Z,100.00
2018-07-14T21:42:51.673Z,100.00
2018-07-14T21:45:19.853Z,100.00
2018-07-14T21:47:48.049Z,100.00
2018-07-14T21:50:16.270Z,100.00
2018-07-14T21:52:44.582Z,100.00
2018-07-14T21:55:12.886Z,100.00
2018-07-14T21:57:41.110Z,100.00
2018-07-14T22:00:10.245Z,100.00
2018-07-14T22:02:38.426Z,100.00
2018-07-14T22:05:06.672Z,100.00
2018-07-14T22:07:34.853Z,100.00
2018-07-14T22:10:03.070Z,100.00
2018-07-14T22:12:31.285Z,100.00
2018-07-14T22:14:59.470Z,100.00
2018-07-14T22:17:27.638Z,100.00
2018-07-14T22:19:56.150Z,100.00
2018-07-14T22:22:24.391Z,100.00
2018-07-14T22:24:52.562Z,100.00
2018-07-14T22:27:20.726Z,100.00
2018-07-14T22:29:48.901Z,100.00
2018-07-14T22:32:17.098Z,100.00
2018-07-14T22:34:45.458Z,100.00
2018-07-14T22:37:13.626Z,100.00
2018-07-14T22:39:41.938Z,100.00
2018-07-14T22:42:10.793Z,100.00
2018-07-14T22:44:38.988Z,100.00
2018-07-14T22:47:07.165Z,100.00
2018-07-14T22:49:35.496Z,100.00
2018-07-14T22:52:03.629Z,100.00
2018-07-14T22:54:31.801Z,100.00
2018-07-14T22:56:59.981Z,100.00
2018-07-14T22:59:28.787Z,100.00
2018-07-14T23:01:57.381Z,100.00
2018-07-14T23:04:26.191Z,100.00
2018-07-14T23:06:54.717Z,100.00
2018-07-14T23:09:22.896Z,100.00
2018-07-14T23:11:51.388Z,100.00
2018-07-14T23:14:19.587Z,100.00
2018-07-14T23:16:47.946Z,100.00
2018-07-14T23:19:16.164Z,100.00
2018-07-14T23:21:44.332Z,100.00
2018-07-14T23:24:12.508Z,100.00
2018-07-14T23:26:40.678Z,100.00
2018-07-14T23:29:08.846Z,100.00
2018-07-14T23:31:37.026Z,100.00
2018-07-14T23:34:05.250Z,100.00
2018-07-14T23:36:33.738Z,100.00
2018-07-14T23:39:01.926Z,100.00
2018-07-14T23:41:30.101Z,100.00
2018-07-14T23:43:58.281Z,100.00
2018-07-14T23:46:26.511Z,100.00
2018-07-14T23:48:54.671Z,100.00
2018-07-14T23:51:23.167Z,100.00
2018-07-14T23:53:51.402Z,100.00
2018-07-14T23:56:19.635Z,100.00
2018-07-14T23:58:47.987Z,100.00
